createdAt,value
2018-09-01T00:00:04.170Z,18.35
2018-09-01T00:00:30.305Z,18.41
2018-09-01T00:00:56.438Z,18.35
2018-09-01T00:01:22.583Z,18.37
2018-09-01T00:01:48.740Z,18.34
2018-09-01T00:02:14.923Z,18.4
2018-09-01T00:02:41.236Z,18.33
2018-09-01T00:03:07.438Z,18.31
2018-09-01T00:03:33.578Z,18.29
2018-09-01T00:03:59.808Z,18.26
2018-09-01T00:04:25.948Z,18.28
2018-09-01T00:04:52.107Z,18.28
2018-09-01T00:05:18.242Z,18.28
2018-09-01T00:05:44.381Z,18.23
2018-09-01T00:06:10.904Z,18.28
2018-09-01T00:06:37.044Z,18.29
2018-09-01T00:07:03.214Z,18.29
2018-09-01T00:07:29.405Z,18.26
2018-09-01T00:07:55.520Z,18.28
2018-09-01T00:08:21.651Z,18.26
2018-09-01T00:08:47.831Z,18.31
2018-09-01T00:09:13.963Z,18.31
2018-09-01T00:09:40.105Z,18.26
2018-09-01T00:10:06.457Z,18.25
2018-09-01T00:10:32.756Z,18.28
2018-09-01T00:10:59.172Z,18.26
2018-09-01T00:11:25.311Z,18.26
2018-09-01T00:11:51.432Z,18.31
2018-09-01T00:12:17.572Z,18.28
2018-09-01T00:12:43.741Z,18.26
2018-09-01T00:13:09.881Z,18.28
2018-09-01T00:13:36.017Z,18.26
2018-09-01T00:14:02.211Z,18.25
2018-09-01T00:14:28.582Z,18.23
2018-09-01T00:14:54.728Z,18.19
2018-09-01T00:15:20.866Z,18.28
2018-09-01T00:15:47.003Z,18.22
2018-09-01T00:16:13.139Z,18.25
2018-09-01T00:16:39.271Z,18.26
2018-09-01T00:17:05.402Z,18.26
2018-09-01T00:17:31.692Z,18.26
2018-09-01T00:17:57.799Z,18.19
2018-09-01T00:18:23.996Z,18.22
2018-09-01T00:18:50.179Z,18.22
2018-09-01T00:19:16.343Z,18.22
2018-09-01T00:19:42.475Z,18.19
2018-09-01T00:20:08.603Z,18.19
2018-09-01T00:20:34.744Z,18.22
2018-09-01T00:21:01.157Z,18.13
2018-09-01T00:21:27.338Z,18.23
2018-09-01T00:21:53.467Z,18.19
2018-09-01T00:22:19.622Z,18.25
2018-09-01T00:22:45.794Z,18.18
2018-09-01T00:23:11.955Z,18.1
2018-09-01T00:23:38.178Z,18.19
2018-09-01T00:24:04.311Z,18.13
2018-09-01T00:24:30.957Z,18.18
2018-09-01T00:24:57.240Z,18.15
2018-09-01T00:25:23.381Z,18.15
2018-09-01T00:25:49.515Z,18.13
2018-09-01T00:26:15.767Z,18.19
2018-09-01T00:26:41.897Z,18.11
2018-09-01T00:27:08.047Z,18.07
2018-09-01T00:27:34.330Z,18.01
2018-09-01T00:28:00.436Z,18.03
2018-09-01T00:28:26.592Z,18.01
2018-09-01T00:28:52.731Z,18.05
2018-09-01T00:29:18.870Z,18.01
2018-09-01T00:29:45.003Z,17.95
2018-09-01T00:30:11.135Z,17.97
2018-09-01T00:30:37.287Z,18
2018-09-01T00:31:03.451Z,17.95
2018-09-01T00:31:29.789Z,17.98
2018-09-01T00:31:55.902Z,17.97
2018-09-01T00:32:22.092Z,17.94
2018-09-01T00:32:48.221Z,18
2018-09-01T00:33:14.357Z,17.95
2018-09-01T00:33:40.488Z,17.95
2018-09-01T00:34:06.624Z,17.95
2018-09-01T00:34:32.778Z,17.97
2018-09-01T00:34:58.969Z,17.97
2018-09-01T00:35:26.318Z,17.9
2018-09-01T00:35:52.448Z,17.92
2018-09-01T00:36:18.578Z,17.89
2018-09-01T00:36:44.725Z,17.86
2018-09-01T00:37:10.860Z,17.95
2018-09-01T00:37:37.003Z,17.9
2018-09-01T00:38:03.145Z,17.92
2018-09-01T00:38:29.828Z,17.87
2018-09-01T00:38:56.215Z,17.92
2018-09-01T00:39:22.357Z,17.85
2018-09-01T00:39:48.492Z,17.78
2018-09-01T00:40:14.630Z,17.8
2018-09-01T00:40:40.769Z,17.76
2018-09-01T00:41:06.904Z,17.8
2018-09-01T00:41:33.036Z,17.76
2018-09-01T00:41:59.204Z,17.79
2018-09-01T00:42:25.404Z,17.76
2018-09-01T00:42:51.895Z,17.74
2018-09-01T00:43:18.031Z,17.76
2018-09-01T00:43:44.163Z,17.76
2018-09-01T00:44:10.325Z,17.76
2018-09-01T00:44:36.457Z,17.72
2018-09-01T00:45:02.635Z,17.74
2018-09-01T00:45:28.962Z,17.71
2018-09-01T00:45:55.400Z,17.74
2018-09-01T00:46:21.617Z,17.65
2018-09-01T00:46:47.754Z,17.78
2018-09-01T00:47:13.885Z,17.65
2018-09-01T00:47:40.018Z,17.57
2018-09-01T00:48:06.554Z,17.72
2018-09-01T00:48:32.694Z,17.72
2018-09-01T00:48:58.831Z,17.68
2018-09-01T00:49:25.129Z,17.79
2018-09-01T00:49:51.267Z,17.67
2018-09-01T00:50:17.428Z,17.57
2018-09-01T00:50:43.574Z,17.63
2018-09-01T00:51:09.709Z,17.65
2018-09-01T00:51:35.855Z,17.67
2018-09-01T00:52:01.989Z,17.64
2018-09-01T00:52:28.121Z,17.7
2018-09-01T00:52:54.256Z,17.7
2018-09-01T00:53:20.415Z,17.7
2018-09-01T00:53:46.567Z,17.59
2018-09-01T00:54:12.698Z,17.56
2018-09-01T00:54:38.828Z,17.59
2018-09-01T00:55:04.990Z,17.6
2018-09-01T00:55:31.128Z,17.64
2018-09-01T00:55:57.285Z,17.46
2018-09-01T00:56:23.420Z,17.57
2018-09-01T00:56:49.550Z,17.65
2018-09-01T00:57:15.680Z,17.54
2018-09-01T00:57:41.809Z,17.46
2018-09-01T00:58:07.953Z,17.48
2018-09-01T00:58:34.080Z,17.51
2018-09-01T00:59:00.239Z,17.42
2018-09-01T00:59:26.379Z,17.46
2018-09-01T00:59:52.511Z,17.49
2018-09-01T01:00:18.644Z,17.52
2018-09-01T01:00:44.783Z,17.45
2018-09-01T01:01:10.935Z,17.57
2018-09-01T01:01:37.073Z,17.45
2018-09-01T01:02:03.227Z,17.49
2018-09-01T01:02:29.365Z,17.48
2018-09-01T01:02:55.536Z,17.41
2018-09-01T01:03:21.685Z,17.54
2018-09-01T01:03:47.822Z,17.44
2018-09-01T01:04:13.956Z,17.49
2018-09-01T01:04:40.105Z,17.44
2018-09-01T01:05:06.229Z,17.41
2018-09-01T01:05:32.360Z,17.45
2018-09-01T01:05:58.494Z,17.49
2018-09-01T01:06:24.623Z,17.45
2018-09-01T01:06:50.754Z,17.45
2018-09-01T01:07:16.890Z,17.45
2018-09-01T01:07:43.050Z,17.38
2018-09-01T01:08:09.185Z,17.45
2018-09-01T01:08:35.315Z,17.48
2018-09-01T01:09:01.454Z,17.44
2018-09-01T01:09:27.615Z,17.45
2018-09-01T01:09:53.746Z,17.51
2018-09-01T01:10:19.877Z,17.45
2018-09-01T01:10:46.011Z,17.42
2018-09-01T01:11:12.167Z,17.48
2018-09-01T01:11:38.321Z,17.39
2018-09-01T01:12:04.462Z,17.44
2018-09-01T01:12:30.592Z,17.36
2018-09-01T01:12:56.724Z,17.41
2018-09-01T01:13:22.882Z,17.36
2018-09-01T01:13:49.018Z,17.39
2018-09-01T01:14:15.174Z,17.44
2018-09-01T01:14:41.302Z,17.44
2018-09-01T01:15:07.436Z,17.42
2018-09-01T01:15:33.565Z,17.45
2018-09-01T01:15:59.735Z,17.41
2018-09-01T01:16:25.885Z,17.42
2018-09-01T01:16:52.026Z,17.31
2018-09-01T01:17:18.175Z,17.36
2018-09-01T01:17:44.307Z,17.38
2018-09-01T01:18:10.464Z,17.39
2018-09-01T01:18:36.595Z,17.34
2018-09-01T01:19:02.731Z,17.26
2018-09-01T01:19:28.862Z,17.27
2018-09-01T01:19:55.030Z,17.31
2018-09-01T01:20:21.169Z,17.26
2018-09-01T01:20:47.304Z,17.33
2018-09-01T01:21:13.436Z,17.24
2018-09-01T01:21:39.593Z,17.29
2018-09-01T01:22:05.740Z,17.3
2018-09-01T01:22:31.885Z,17.26
2018-09-01T01:22:58.032Z,17.23
2018-09-01T01:23:24.192Z,17.22
2018-09-01T01:23:50.331Z,17.23
2018-09-01T01:24:16.483Z,17.29
2018-09-01T01:24:42.608Z,17.23
2018-09-01T01:25:08.771Z,17.27
2018-09-01T01:25:34.902Z,17.23
2018-09-01T01:26:01.032Z,17.15
2018-09-01T01:26:27.169Z,17.16
2018-09-01T01:26:53.321Z,17.2
2018-09-01T01:27:19.455Z,17.23
2018-09-01T01:27:45.590Z,17.16
2018-09-01T01:28:11.748Z,17.24
2018-09-01T01:28:37.880Z,17.11
2018-09-01T01:29:04.019Z,17.09
2018-09-01T01:29:30.150Z,17.15
2018-09-01T01:29:56.280Z,17.19
2018-09-01T01:30:22.419Z,17.11
2018-09-01T01:30:48.549Z,17.12
2018-09-01T01:31:14.680Z,17.06
2018-09-01T01:31:40.810Z,17.12
2018-09-01T01:32:06.950Z,17.08
2018-09-01T01:32:33.081Z,17.08
2018-09-01T01:32:59.248Z,17.11
2018-09-01T01:33:25.381Z,17.14
2018-09-01T01:33:51.509Z,17.11
2018-09-01T01:34:17.647Z,17.11
2018-09-01T01:34:43.784Z,17.09
2018-09-01T01:35:09.916Z,17.12
2018-09-01T01:35:36.072Z,17.12
2018-09-01T01:36:02.229Z,17.09
2018-09-01T01:36:28.365Z,17.12
2018-09-01T01:36:54.499Z,17.11
2018-09-01T01:37:20.649Z,17.04
2018-09-01T01:37:46.787Z,16.94
2018-09-01T01:38:12.921Z,17.08
2018-09-01T01:38:39.047Z,17.12
2018-09-01T01:39:05.176Z,17.15
2018-09-01T01:39:31.313Z,17.04
2018-09-01T01:39:57.447Z,17.12
2018-09-01T01:40:23.580Z,17.04
2018-09-01T01:40:49.718Z,17.04
2018-09-01T01:41:15.844Z,17.01
2018-09-01T01:41:41.987Z,17.02
2018-09-01T01:42:08.137Z,16.99
2018-09-01T01:42:34.311Z,17.04
2018-09-01T01:43:00.457Z,17.01
2018-09-01T01:43:26.590Z,16.97
2018-09-01T01:43:52.745Z,17.01
2018-09-01T01:44:18.883Z,16.96
2018-09-01T01:44:45.011Z,16.97
2018-09-01T01:45:11.167Z,16.96
2018-09-01T01:45:37.308Z,16.96
2018-09-01T01:46:03.447Z,16.96
2018-09-01T01:46:29.606Z,16.87
2018-09-01T01:46:55.743Z,16.99
2018-09-01T01:47:21.898Z,16.96
2018-09-01T01:47:48.056Z,16.9
2018-09-01T01:48:14.191Z,16.89
2018-09-01T01:48:40.326Z,16.9
2018-09-01T01:49:06.456Z,16.84
2018-09-01T01:49:32.624Z,16.81
2018-09-01T01:49:58.765Z,16.78
2018-09-01T01:50:24.895Z,16.74
2018-09-01T01:50:51.031Z,16.78
2018-09-01T01:51:17.203Z,16.79
2018-09-01T01:51:43.340Z,16.81
2018-09-01T01:52:09.474Z,16.83
2018-09-01T01:52:35.633Z,16.86
2018-09-01T01:53:01.768Z,16.79
2018-09-01T01:53:27.904Z,16.81
2018-09-01T01:53:54.065Z,16.81
2018-09-01T01:54:20.218Z,16.79
2018-09-01T01:54:46.356Z,16.75
2018-09-01T01:55:12.493Z,16.81
2018-09-01T01:55:38.622Z,16.78
2018-09-01T01:56:04.756Z,16.78
2018-09-01T01:56:30.918Z,16.87
2018-09-01T01:56:57.054Z,16.83
2018-09-01T01:57:23.189Z,16.83
2018-09-01T01:57:49.323Z,16.81
2018-09-01T01:58:15.462Z,16.79
2018-09-01T01:58:41.623Z,16.78
2018-09-01T01:59:07.753Z,16.79
2018-09-01T01:59:33.895Z,16.78
2018-09-01T02:00:00.025Z,16.74
2018-09-01T02:00:26.161Z,16.84
2018-09-01T02:00:52.305Z,16.79
2018-09-01T02:01:18.435Z,16.76
2018-09-01T02:01:44.576Z,16.76
2018-09-01T02:02:10.711Z,16.84
2018-09-01T02:02:36.851Z,16.75
2018-09-01T02:03:02.996Z,16.79
2018-09-01T02:03:29.127Z,16.79
2018-09-01T02:03:55.267Z,16.81
2018-09-01T02:04:21.400Z,16.79
2018-09-01T02:04:47.527Z,16.74
2018-09-01T02:05:13.684Z,16.81
2018-09-01T02:05:39.817Z,16.79
2018-09-01T02:06:05.950Z,16.79
2018-09-01T02:06:32.105Z,16.79
2018-09-01T02:06:58.265Z,16.75
2018-09-01T02:07:24.392Z,16.74
2018-09-01T02:07:50.548Z,16.72
2018-09-01T02:08:16.710Z,16.74
2018-09-01T02:08:42.866Z,16.78
2018-09-01T02:09:09.027Z,16.75
2018-09-01T02:09:35.166Z,16.75
2018-09-01T02:10:01.300Z,16.72
2018-09-01T02:10:27.433Z,16.74
2018-09-01T02:10:53.572Z,16.66
2018-09-01T02:11:19.700Z,16.72
2018-09-01T02:11:45.844Z,16.66
2018-09-01T02:12:11.977Z,16.76
2018-09-01T02:12:38.134Z,16.69
2018-09-01T02:13:04.272Z,16.66
2018-09-01T02:13:30.404Z,16.71
2018-09-01T02:13:56.549Z,16.6
2018-09-01T02:14:22.682Z,16.58
2018-09-01T02:14:48.825Z,16.69
2018-09-01T02:15:14.951Z,16.74
2018-09-01T02:15:41.089Z,16.56
2018-09-01T02:16:07.226Z,16.58
2018-09-01T02:16:33.392Z,16.56
2018-09-01T02:16:59.543Z,16.57
2018-09-01T02:17:25.673Z,16.6
2018-09-01T02:17:51.837Z,16.58
2018-09-01T02:18:17.969Z,16.61
2018-09-01T02:18:44.107Z,16.65
2018-09-01T02:19:10.235Z,16.6
2018-09-01T02:19:36.368Z,16.58
2018-09-01T02:20:02.525Z,16.5
2018-09-01T02:20:28.645Z,16.54
2018-09-01T02:20:54.771Z,16.43
2018-09-01T02:21:20.930Z,16.54
2018-09-01T02:21:47.072Z,16.57
2018-09-01T02:22:13.201Z,16.51
2018-09-01T02:22:39.340Z,16.49
2018-09-01T02:23:05.494Z,16.51
2018-09-01T02:23:31.644Z,16.6
2018-09-01T02:23:57.821Z,16.47
2018-09-01T02:24:23.986Z,16.51
2018-09-01T02:24:50.120Z,16.51
2018-09-01T02:25:16.250Z,16.5
2018-09-01T02:25:42.383Z,16.57
2018-09-01T02:26:08.524Z,16.53
2018-09-01T02:26:34.656Z,16.42
2018-09-01T02:27:00.813Z,16.51
2018-09-01T02:27:26.944Z,16.41
2018-09-01T02:27:53.077Z,16.39
2018-09-01T02:28:19.219Z,16.38
2018-09-01T02:28:45.348Z,16.46
2018-09-01T02:29:11.550Z,16.46
2018-09-01T02:29:37.685Z,16.46
2018-09-01T02:30:03.823Z,16.5
2018-09-01T02:30:30.024Z,16.46
2018-09-01T02:30:56.161Z,16.38
2018-09-01T02:31:22.383Z,16.39
2018-09-01T02:31:48.536Z,16.38
2018-09-01T02:32:14.667Z,16.41
2018-09-01T02:32:40.803Z,16.43
2018-09-01T02:33:06.958Z,16.42
2018-09-01T02:33:33.123Z,16.43
2018-09-01T02:33:59.308Z,16.41
2018-09-01T02:34:25.443Z,16.33
2018-09-01T02:34:51.573Z,16.38
2018-09-01T02:35:17.723Z,16.38
2018-09-01T02:35:43.896Z,16.35
2018-09-01T02:36:10.041Z,16.42
2018-09-01T02:36:36.199Z,16.42
2018-09-01T02:37:02.361Z,16.36
2018-09-01T02:37:28.499Z,16.35
2018-09-01T02:37:54.629Z,16.33
2018-09-01T02:38:20.761Z,16.36
2018-09-01T02:38:46.891Z,16.35
2018-09-01T02:39:13.098Z,16.35
2018-09-01T02:39:39.228Z,16.35
2018-09-01T02:40:05.363Z,16.41
2018-09-01T02:40:31.530Z,16.26
2018-09-01T02:40:57.680Z,16.26
2018-09-01T02:41:23.836Z,16.29
2018-09-01T02:41:49.969Z,16.29
2018-09-01T02:42:16.110Z,16.31
2018-09-01T02:42:42.264Z,16.29
2018-09-01T02:43:08.426Z,16.26
2018-09-01T02:43:34.585Z,16.28
2018-09-01T02:44:00.781Z,16.33
2018-09-01T02:44:26.916Z,16.29
2018-09-01T02:44:53.041Z,16.32
2018-09-01T02:45:19.174Z,16.28
2018-09-01T02:45:45.329Z,16.24
2018-09-01T02:46:11.462Z,16.29
2018-09-01T02:46:37.616Z,16.29
2018-09-01T02:47:03.747Z,16.2
2018-09-01T02:47:29.876Z,16.23
2018-09-01T02:47:56.040Z,16.24
2018-09-01T02:48:22.174Z,16.2
2018-09-01T02:48:48.334Z,16.16
2018-09-01T02:49:14.524Z,16.13
2018-09-01T02:49:40.652Z,16.16
2018-09-01T02:50:06.811Z,16.17
2018-09-01T02:50:32.946Z,16.2
2018-09-01T02:50:59.078Z,16.16
2018-09-01T02:51:25.212Z,16.17
2018-09-01T02:51:51.369Z,16.15
2018-09-01T02:52:17.507Z,16.17
2018-09-01T02:52:43.658Z,16.15
2018-09-01T02:53:09.797Z,16.15
2018-09-01T02:53:35.933Z,16.12
2018-09-01T02:54:02.105Z,16.13
2018-09-01T02:54:28.249Z,16.09
2018-09-01T02:54:54.394Z,16.1
2018-09-01T02:55:20.522Z,16.08
2018-09-01T02:55:46.657Z,16.15
2018-09-01T02:56:12.806Z,16.1
2018-09-01T02:56:38.992Z,16.1
2018-09-01T02:57:05.143Z,16.12
2018-09-01T02:57:31.307Z,16.17
2018-09-01T02:57:57.461Z,16.17
2018-09-01T02:58:23.596Z,16.15
2018-09-01T02:58:49.754Z,16.16
2018-09-01T02:59:15.908Z,16.17
2018-09-01T02:59:42.041Z,16.05
2018-09-01T03:00:08.203Z,16.1
2018-09-01T03:00:34.334Z,16.15
2018-09-01T03:01:00.491Z,16.12
2018-09-01T03:01:26.626Z,16.08
2018-09-01T03:01:52.766Z,16.09
2018-09-01T03:02:18.915Z,16.09
2018-09-01T03:02:45.046Z,15.98
2018-09-01T03:03:11.180Z,16.1
2018-09-01T03:03:37.313Z,16.04
2018-09-01T03:04:03.461Z,16.13
2018-09-01T03:04:29.597Z,16.02
2018-09-01T03:04:55.755Z,16.05
2018-09-01T03:05:21.913Z,16.05
2018-09-01T03:05:48.062Z,15.95
2018-09-01T03:06:14.194Z,16
2018-09-01T03:06:40.325Z,16.08
2018-09-01T03:07:06.454Z,15.97
2018-09-01T03:07:32.591Z,16.02
2018-09-01T03:07:58.743Z,16.04
2018-09-01T03:08:24.876Z,16.08
2018-09-01T03:08:51.025Z,16.05
2018-09-01T03:09:17.189Z,16.02
2018-09-01T03:09:43.326Z,15.92
2018-09-01T03:10:09.456Z,16.01
2018-09-01T03:10:35.632Z,16.01
2018-09-01T03:11:01.766Z,15.91
2018-09-01T03:11:27.923Z,16
2018-09-01T03:11:54.056Z,16
2018-09-01T03:12:20.192Z,15.95
2018-09-01T03:12:46.331Z,15.98
2018-09-01T03:13:12.461Z,16.01
2018-09-01T03:13:38.614Z,15.95
2018-09-01T03:14:04.753Z,15.92
2018-09-01T03:14:30.909Z,15.97
2018-09-01T03:14:57.041Z,15.97
2018-09-01T03:15:23.175Z,15.98
2018-09-01T03:15:49.311Z,15.94
2018-09-01T03:16:15.446Z,15.95
2018-09-01T03:16:41.573Z,15.97
2018-09-01T03:17:07.707Z,15.95
2018-09-01T03:17:33.841Z,15.95
2018-09-01T03:18:00.001Z,15.97
2018-09-01T03:18:26.133Z,15.98
2018-09-01T03:18:52.266Z,15.94
2018-09-01T03:19:18.414Z,15.88
2018-09-01T03:19:44.570Z,15.84
2018-09-01T03:20:10.744Z,15.86
2018-09-01T03:20:36.882Z,15.88
2018-09-01T03:21:03.016Z,15.83
2018-09-01T03:21:29.148Z,15.84
2018-09-01T03:21:55.284Z,15.9
2018-09-01T03:22:21.412Z,15.91
2018-09-01T03:22:47.570Z,15.84
2018-09-01T03:23:13.729Z,15.83
2018-09-01T03:23:39.866Z,15.82
2018-09-01T03:24:06.017Z,15.86
2018-09-01T03:24:32.153Z,15.86
2018-09-01T03:24:58.282Z,15.83
2018-09-01T03:25:24.420Z,15.83
2018-09-01T03:25:50.553Z,15.83
2018-09-01T03:26:16.677Z,15.77
2018-09-01T03:26:42.821Z,15.79
2018-09-01T03:27:08.976Z,15.73
2018-09-01T03:27:35.134Z,15.72
2018-09-01T03:28:01.299Z,15.83
2018-09-01T03:28:27.434Z,15.75
2018-09-01T03:28:53.588Z,15.7
2018-09-01T03:29:19.746Z,15.75
2018-09-01T03:29:45.900Z,15.73
2018-09-01T03:30:12.060Z,15.75
2018-09-01T03:30:38.192Z,15.7
2018-09-01T03:31:04.330Z,15.68
2018-09-01T03:31:30.476Z,15.72
2018-09-01T03:31:56.654Z,15.7
2018-09-01T03:32:22.819Z,15.7
2018-09-01T03:32:48.986Z,15.67
2018-09-01T03:33:15.144Z,15.76
2018-09-01T03:33:41.272Z,15.68
2018-09-01T03:34:07.437Z,15.73
2018-09-01T03:34:33.584Z,15.72
2018-09-01T03:34:59.719Z,15.64
2018-09-01T03:35:25.870Z,15.65
2018-09-01T03:35:52.020Z,15.61
2018-09-01T03:36:18.179Z,15.65
2018-09-01T03:36:44.333Z,15.62
2018-09-01T03:37:10.512Z,15.64
2018-09-01T03:37:36.599Z,15.62
2018-09-01T03:38:02.784Z,15.64
2018-09-01T03:38:28.909Z,15.62
2018-09-01T03:38:55.035Z,15.55
2018-09-01T03:39:21.204Z,15.58
2018-09-01T03:39:47.344Z,15.55
2018-09-01T03:40:13.507Z,15.51
2018-09-01T03:40:39.657Z,15.52
2018-09-01T03:41:05.787Z,15.51
2018-09-01T03:41:31.917Z,15.49
2018-09-01T03:41:58.050Z,15.52
2018-09-01T03:42:24.188Z,15.54
2018-09-01T03:42:50.324Z,15.51
2018-09-01T03:43:16.478Z,15.52
2018-09-01T03:43:42.637Z,15.47
2018-09-01T03:44:08.765Z,15.54
2018-09-01T03:44:34.948Z,15.47
2018-09-01T03:45:01.092Z,15.54
2018-09-01T03:45:27.215Z,15.47
2018-09-01T03:45:53.371Z,15.44
2018-09-01T03:46:19.508Z,15.43
2018-09-01T03:46:45.636Z,15.47
2018-09-01T03:47:11.773Z,15.46
2018-09-01T03:47:37.928Z,15.44
2018-09-01T03:48:04.115Z,15.47
2018-09-01T03:48:30.246Z,15.42
2018-09-01T03:48:56.395Z,15.47
2018-09-01T03:49:22.534Z,15.46
2018-09-01T03:49:48.696Z,15.46
2018-09-01T03:50:14.826Z,15.44
2018-09-01T03:50:40.992Z,15.43
2018-09-01T03:51:07.149Z,15.31
2018-09-01T03:51:33.276Z,15.39
2018-09-01T03:51:59.413Z,15.43
2018-09-01T03:52:25.564Z,15.47
2018-09-01T03:52:51.704Z,15.33
2018-09-01T03:53:17.883Z,15.39
2018-09-01T03:53:44.008Z,15.42
2018-09-01T03:54:10.142Z,15.36
2018-09-01T03:54:36.275Z,15.42
2018-09-01T03:55:02.414Z,15.46
2018-09-01T03:55:28.562Z,15.43
2018-09-01T03:55:54.723Z,15.42
2018-09-01T03:56:20.853Z,15.4
2018-09-01T03:56:46.991Z,15.4
2018-09-01T03:57:13.121Z,15.35
2018-09-01T03:57:39.258Z,15.33
2018-09-01T03:58:05.411Z,15.42
2018-09-01T03:58:31.565Z,15.35
2018-09-01T03:58:57.721Z,15.46
2018-09-01T03:59:23.875Z,15.37
2018-09-01T03:59:50.033Z,15.37
2018-09-01T04:00:16.182Z,15.44
2018-09-01T04:00:42.329Z,15.39
2018-09-01T04:01:08.476Z,15.42
2018-09-01T04:01:34.614Z,15.36
2018-09-01T04:02:00.750Z,15.4
2018-09-01T04:02:26.879Z,15.27
2018-09-01T04:02:53.019Z,15.28
2018-09-01T04:03:19.148Z,15.31
2018-09-01T04:03:45.278Z,15.33
2018-09-01T04:04:11.413Z,15.28
2018-09-01T04:04:37.541Z,15.29
2018-09-01T04:05:03.677Z,15.33
2018-09-01T04:05:29.807Z,15.27
2018-09-01T04:05:55.946Z,15.29
2018-09-01T04:06:22.104Z,15.28
2018-09-01T04:06:48.292Z,15.37
2018-09-01T04:07:14.430Z,15.39
2018-09-01T04:07:40.579Z,15.27
2018-09-01T04:08:06.708Z,15.31
2018-09-01T04:08:32.844Z,15.29
2018-09-01T04:08:59.004Z,15.29
2018-09-01T04:09:25.134Z,15.29
2018-09-01T04:09:51.263Z,15.33
2018-09-01T04:10:17.420Z,15.35
2018-09-01T04:10:43.557Z,15.37
2018-09-01T04:11:09.687Z,15.35
2018-09-01T04:11:35.818Z,15.39
2018-09-01T04:12:01.973Z,15.37
2018-09-01T04:12:28.112Z,15.37
2018-09-01T04:12:54.267Z,15.35
2018-09-01T04:13:20.429Z,15.29
2018-09-01T04:13:46.563Z,15.28
2018-09-01T04:14:12.698Z,15.28
2018-09-01T04:14:38.828Z,15.28
2018-09-01T04:15:04.966Z,15.39
2018-09-01T04:15:31.120Z,15.28
2018-09-01T04:15:57.252Z,15.28
2018-09-01T04:16:23.387Z,15.28
2018-09-01T04:16:49.517Z,15.29
2018-09-01T04:17:15.648Z,15.33
2018-09-01T04:17:41.852Z,15.31
2018-09-01T04:18:08.000Z,15.36
2018-09-01T04:18:34.139Z,15.35
2018-09-01T04:19:00.276Z,15.28
2018-09-01T04:19:26.410Z,15.27
2018-09-01T04:19:52.535Z,15.28
2018-09-01T04:20:18.672Z,15.28
2018-09-01T04:20:44.882Z,15.33
2018-09-01T04:21:11.030Z,15.31
2018-09-01T04:21:37.165Z,15.27
2018-09-01T04:22:03.319Z,15.31
2018-09-01T04:22:29.448Z,15.33
2018-09-01T04:22:55.576Z,15.25
2018-09-01T04:23:21.715Z,15.31
2018-09-01T04:23:47.842Z,15.29
2018-09-01T04:24:13.976Z,15.24
2018-09-01T04:24:40.099Z,15.19
2018-09-01T04:25:06.243Z,15.19
2018-09-01T04:25:32.420Z,15.21
2018-09-01T04:25:58.554Z,15.25
2018-09-01T04:26:24.689Z,15.19
2018-09-01T04:26:50.814Z,15.31
2018-09-01T04:27:16.967Z,15.27
2018-09-01T04:27:43.121Z,15.14
2018-09-01T04:28:09.258Z,15.18
2018-09-01T04:28:35.390Z,15.18
2018-09-01T04:29:01.520Z,15.21
2018-09-01T04:29:27.658Z,15.15
2018-09-01T04:29:53.786Z,15.15
2018-09-01T04:30:19.968Z,15.17
2018-09-01T04:30:46.104Z,15.15
2018-09-01T04:31:12.269Z,15.1
2018-09-01T04:31:38.454Z,15.07
2018-09-01T04:32:04.721Z,15.15
2018-09-01T04:32:30.742Z,15.1
2018-09-01T04:32:56.896Z,15.1
2018-09-01T04:33:23.030Z,15.11
2018-09-01T04:33:49.156Z,15.15
2018-09-01T04:34:15.316Z,15.14
2018-09-01T04:34:41.447Z,15.09
2018-09-01T04:35:07.590Z,15.1
2018-09-01T04:35:33.746Z,15.14
2018-09-01T04:35:59.876Z,15.11
2018-09-01T04:36:26.038Z,15.15
2018-09-01T04:36:52.169Z,15.15
2018-09-01T04:37:18.342Z,15.18
2018-09-01T04:37:44.482Z,15.14
2018-09-01T04:38:10.612Z,15.11
2018-09-01T04:38:36.745Z,15.14
2018-09-01T04:39:02.878Z,15.15
2018-09-01T04:39:29.054Z,15.18
2018-09-01T04:39:55.193Z,15.17
2018-09-01T04:40:21.341Z,15.14
2018-09-01T04:40:47.474Z,15.18
2018-09-01T04:41:13.607Z,15.1
2018-09-01T04:41:39.763Z,15.17
2018-09-01T04:42:05.901Z,15.17
2018-09-01T04:42:32.039Z,15.1
2018-09-01T04:42:58.166Z,15.18
2018-09-01T04:43:24.306Z,15.18
2018-09-01T04:43:50.456Z,15.18
2018-09-01T04:44:16.615Z,15.1
2018-09-01T04:44:42.794Z,15.15
2018-09-01T04:45:08.950Z,15.19
2018-09-01T04:45:35.075Z,15.17
2018-09-01T04:46:01.209Z,15.19
2018-09-01T04:46:27.343Z,15.21
2018-09-01T04:46:53.549Z,15.11
2018-09-01T04:47:19.672Z,15.21
2018-09-01T04:47:45.807Z,15.14
2018-09-01T04:48:11.973Z,15.14
2018-09-01T04:48:38.106Z,15.11
2018-09-01T04:49:04.259Z,15.18
2018-09-01T04:49:30.411Z,15.14
2018-09-01T04:49:56.543Z,15.15
2018-09-01T04:50:22.677Z,15.14
2018-09-01T04:50:48.815Z,15.14
2018-09-01T04:51:14.950Z,15.17
2018-09-01T04:51:41.083Z,15.14
2018-09-01T04:52:07.248Z,15.15
2018-09-01T04:52:33.371Z,15.15
2018-09-01T04:52:59.507Z,15.15
2018-09-01T04:53:25.667Z,15.17
2018-09-01T04:53:51.827Z,15.11
2018-09-01T04:54:17.957Z,15.1
2018-09-01T04:54:44.115Z,15.11
2018-09-01T04:55:10.255Z,15.24
2018-09-01T04:55:36.430Z,15.24
2018-09-01T04:56:02.566Z,15.1
2018-09-01T04:56:28.724Z,15.11
2018-09-01T04:56:54.853Z,15.21
2018-09-01T04:57:20.984Z,15.15
2018-09-01T04:57:47.141Z,15.11
2018-09-01T04:58:13.265Z,15.22
2018-09-01T04:58:39.405Z,15.11
2018-09-01T04:59:05.534Z,15.18
2018-09-01T04:59:31.664Z,15.07
2018-09-01T04:59:57.798Z,15.14
2018-09-01T05:00:23.951Z,15.11
2018-09-01T05:00:50.153Z,15.11
2018-09-01T05:01:16.319Z,15.14
2018-09-01T05:01:42.393Z,15.06
2018-09-01T05:02:08.526Z,15.15
2018-09-01T05:02:34.662Z,15.17
2018-09-01T05:03:00.793Z,15.11
2018-09-01T05:03:26.968Z,15.25
2018-09-01T05:03:53.107Z,15.15
2018-09-01T05:04:19.238Z,15.14
2018-09-01T05:04:45.413Z,15.09
2018-09-01T05:05:11.582Z,15.1
2018-09-01T05:05:37.718Z,15.15
2018-09-01T05:06:03.878Z,15.11
2018-09-01T05:06:30.004Z,15.17
2018-09-01T05:06:56.161Z,15.21
2018-09-01T05:07:22.324Z,15.27
2018-09-01T05:07:48.457Z,15.18
2018-09-01T05:08:14.631Z,15.24
2018-09-01T05:08:40.773Z,15.19
2018-09-01T05:09:06.911Z,15.14
2018-09-01T05:09:33.063Z,15.11
2018-09-01T05:09:59.198Z,15.24
2018-09-01T05:10:25.358Z,15.15
2018-09-01T05:10:51.544Z,15.27
2018-09-01T05:11:17.673Z,15.21
2018-09-01T05:11:43.814Z,15.27
2018-09-01T05:12:09.938Z,15.28
2018-09-01T05:12:36.104Z,15.29
2018-09-01T05:13:02.259Z,15.25
2018-09-01T05:13:28.391Z,15.28
2018-09-01T05:13:54.519Z,15.29
2018-09-01T05:14:20.673Z,15.29
2018-09-01T05:14:46.810Z,15.35
2018-09-01T05:15:12.945Z,15.36
2018-09-01T05:15:39.101Z,15.29
2018-09-01T05:16:05.234Z,15.35
2018-09-01T05:16:31.364Z,15.28
2018-09-01T05:16:57.518Z,15.29
2018-09-01T05:17:23.673Z,15.29
2018-09-01T05:17:49.809Z,15.35
2018-09-01T05:18:15.975Z,15.35
2018-09-01T05:18:42.122Z,15.33
2018-09-01T05:19:08.247Z,15.27
2018-09-01T05:19:34.399Z,15.39
2018-09-01T05:20:00.535Z,15.27
2018-09-01T05:20:26.672Z,15.31
2018-09-01T05:20:52.825Z,15.29
2018-09-01T05:21:18.953Z,15.35
2018-09-01T05:21:45.137Z,15.28
2018-09-01T05:22:11.293Z,15.28
2018-09-01T05:22:37.423Z,15.36
2018-09-01T05:23:03.549Z,15.37
2018-09-01T05:23:29.685Z,15.28
2018-09-01T05:23:55.833Z,15.39
2018-09-01T05:24:22.009Z,15.29
2018-09-01T05:24:48.140Z,15.37
2018-09-01T05:25:14.330Z,15.43
2018-09-01T05:25:40.461Z,15.37
2018-09-01T05:26:06.650Z,15.4
2018-09-01T05:26:32.786Z,15.37
2018-09-01T05:26:58.917Z,15.37
2018-09-01T05:27:25.054Z,15.39
2018-09-01T05:27:51.185Z,15.37
2018-09-01T05:28:17.347Z,15.43
2018-09-01T05:28:43.528Z,15.4
2018-09-01T05:29:09.661Z,15.36
2018-09-01T05:29:35.797Z,15.42
2018-09-01T05:30:01.934Z,15.35
2018-09-01T05:30:28.085Z,15.4
2018-09-01T05:30:54.224Z,15.43
2018-09-01T05:31:20.348Z,15.44
2018-09-01T05:31:46.506Z,15.42
2018-09-01T05:32:12.664Z,15.44
2018-09-01T05:32:38.797Z,15.44
2018-09-01T05:33:04.954Z,15.43
2018-09-01T05:33:31.110Z,15.44
2018-09-01T05:33:57.247Z,15.43
2018-09-01T05:34:23.382Z,15.42
2018-09-01T05:34:49.512Z,15.43
2018-09-01T05:35:15.645Z,15.4
2018-09-01T05:35:41.786Z,15.44
2018-09-01T05:36:07.943Z,15.44
2018-09-01T05:36:34.142Z,15.43
2018-09-01T05:37:00.244Z,15.35
2018-09-01T05:37:26.401Z,15.46